sensor_id;sensor_type;location;lat;lon;timestamp;pressure;altitude;pressure_sealevel;temperature;humidity
72975;BME280;61166;54.228;37.632;2022-08-07T00:00:19;99548.69;;;17.22;nan
72975;BME280;61166;54.228;37.632;2022-08-07T00:02:44;99555.31;;;17.20;nan
72975;BME280;61166;54.228;37.632;2022-08-07T00:05:10;99553.38;;;17.15;nan
72975;BME280;61166;54.228;37.632;2022-08-07T00:07:35;99561.28;;;17.10;nan
72975;BME280;61166;54.228;37.632;2022-08-07T00:10:01;99555.34;;;17.03;nan
72975;BME280;61166;54.228;37.632;2022-08-07T00:12:26;99550.50;;;17.00;nan
72975;BME280;61166;54.228;37.632;2022-08-07T00:14:51;99555.00;;;16.99;nan
72975;BME280;61166;54.228;37.632;2022-08-07T00:17:17;99552.44;;;16.88;nan
72975;BME280;61166;54.228;37.632;2022-08-07T00:19:42;99546.81;;;16.84;nan
72975;BME280;61166;54.228;37.632;2022-08-07T00:22:08;99541.50;;;16.84;nan
72975;BME280;61166;54.228;37.632;2022-08-07T00:24:33;99547.06;;;16.82;nan
72975;BME280;61166;54.228;37.632;2022-08-07T00:26:58;99544.88;;;16.79;nan
72975;BME280;61166;54.228;37.632;2022-08-07T00:29:24;99542.47;;;16.78;nan
72975;BME280;61166;54.228;37.632;2022-08-07T00:31:53;99536.34;;;16.77;nan
72975;BME280;61166;54.228;37.632;2022-08-07T00:34:19;99537.34;;;16.71;nan
72975;BME280;61166;54.228;37.632;2022-08-07T00:36:44;99542.34;;;16.68;nan
72975;BME280;61166;54.228;37.632;2022-08-07T00:39:11;99546.03;;;16.67;nan
72975;BME280;61166;54.228;37.632;2022-08-07T00:41:38;99547.78;;;16.61;nan
72975;BME280;61166;54.228;37.632;2022-08-07T00:44:04;99547.47;;;16.58;nan
72975;BME280;61166;54.228;37.632;2022-08-07T00:46:30;99546.09;;;16.55;nan
72975;BME280;61166;54.228;37.632;2022-08-07T00:48:56;99552.59;;;16.47;nan
72975;BME280;61166;54.228;37.632;2022-08-07T00:51:27;99545.34;;;16.43;nan
72975;BME280;61166;54.228;37.632;2022-08-07T00:53:53;99538.91;;;16.39;nan
72975;BME280;61166;54.228;37.632;2022-08-07T00:56:18;99539.97;;;16.38;nan
72975;BME280;61166;54.228;37.632;2022-08-07T00:58:44;99542.22;;;16.46;nan
72975;BME280;61166;54.228;37.632;2022-08-07T01:01:09;99547.06;;;16.49;nan
72975;BME280;61166;54.228;37.632;2022-08-07T01:03:35;99551.22;;;16.45;nan
72975;BME280;61166;54.228;37.632;2022-08-07T01:06:01;99546.97;;;16.44;nan
72975;BME280;61166;54.228;37.632;2022-08-07T01:08:27;99546.97;;;16.44;nan
72975;BME280;61166;54.228;37.632;2022-08-07T01:10:53;99548.09;;;16.48;nan
72975;BME280;61166;54.228;37.632;2022-08-07T01:13:19;99543.69;;;16.54;nan
72975;BME280;61166;54.228;37.632;2022-08-07T01:15:46;99534.50;;;16.61;nan
72975;BME280;61166;54.228;37.632;2022-08-07T01:18:13;99542.47;;;16.61;nan
72975;BME280;61166;54.228;37.632;2022-08-07T01:20:43;99544.56;;;16.59;nan
72975;BME280;61166;54.228;37.632;2022-08-07T01:23:09;99539.75;;;16.56;nan
72975;BME280;61166;54.228;37.632;2022-08-07T01:25:36;99535.31;;;16.45;nan
72975;BME280;61166;54.228;37.632;2022-08-07T01:28:04;99543.09;;;16.35;nan
72975;BME280;61166;54.228;37.632;2022-08-07T01:30:31;99542.91;;;16.25;nan
72975;BME280;61166;54.228;37.632;2022-08-07T01:32:57;99540.13;;;16.14;nan
72975;BME280;61166;54.228;37.632;2022-08-07T01:35:23;99544.28;;;16.10;nan
72975;BME280;61166;54.228;37.632;2022-08-07T01:37:49;99546.28;;;16.03;nan
72975;BME280;61166;54.228;37.632;2022-08-07T01:40:18;99543.88;;;16.02;nan
72975;BME280;61166;54.228;37.632;2022-08-07T01:42:44;99549.50;;;16.05;nan
72975;BME280;61166;54.228;37.632;2022-08-07T01:45:10;99540.59;;;16.11;nan
72975;BME280;61166;54.228;37.632;2022-08-07T01:47:36;99547.34;;;16.19;nan
72975;BME280;61166;54.228;37.632;2022-08-07T01:50:03;99538.75;;;16.29;nan
72975;BME280;61166;54.228;37.632;2022-08-07T01:52:30;99543.09;;;16.35;nan
72975;BME280;61166;54.228;37.632;2022-08-07T01:54:55;99541.66;;;16.44;nan
72975;BME280;61166;54.228;37.632;2022-08-07T01:57:27;99542.06;;;16.52;nan
72975;BME280;61166;54.228;37.632;2022-08-07T02:00:12;99542.22;;;16.63;nan
72975;BME280;61166;54.228;37.632;2022-08-07T02:03:02;99546.03;;;16.67;nan
72975;BME280;61166;54.228;37.632;2022-08-07T02:05:38;99543.53;;;16.60;nan
72975;BME280;61166;54.228;37.632;2022-08-07T02:08:13;99544.72;;;16.52;nan
72975;BME280;61166;54.228;37.632;2022-08-07T02:10:41;99542.63;;;16.55;nan
72975;BME280;61166;54.228;37.632;2022-08-07T02:13:07;99535.78;;;16.59;nan
72975;BME280;61166;54.228;37.632;2022-08-07T02:15:34;99539.13;;;16.66;nan
72975;BME280;61166;54.228;37.632;2022-08-07T02:18:02;99537.16;;;16.95;nan
72975;BME280;61166;54.228;37.632;2022-08-07T02:20:29;99537.09;;;17.28;nan
72975;BME280;61166;54.228;37.632;2022-08-07T02:22:59;99543.88;;;17.63;nan
72975;BME280;61166;54.228;37.632;2022-08-07T02:25:26;99538.94;;;17.98;nan
72975;BME280;61166;54.228;37.632;2022-08-07T02:27:54;99530.34;;;18.45;nan
72975;BME280;61166;54.228;37.632;2022-08-07T02:30:20;99531.88;;;18.68;nan
72975;BME280;61166;54.228;37.632;2022-08-07T02:32:48;99531.25;;;18.93;nan
72975;BME280;61166;54.228;37.632;2022-08-07T02:35:14;99531.69;;;19.32;nan
72975;BME280;61166;54.228;37.632;2022-08-07T02:37:44;99528.44;;;19.82;nan
72975;BME280;61166;54.228;37.632;2022-08-07T02:40:11;99534.66;;;20.13;nan
72975;BME280;61166;54.228;37.632;2022-08-07T02:42:37;99526.63;;;20.28;nan
72975;BME280;61166;54.228;37.632;2022-08-07T02:45:05;99540.28;;;20.77;nan
72975;BME280;61166;54.228;37.632;2022-08-07T02:47:31;99535.13;;;21.22;nan
72975;BME280;61166;54.228;37.632;2022-08-07T02:49:57;99539.44;;;21.72;nan
72975;BME280;61166;54.228;37.632;2022-08-07T02:52:28;99532.44;;;22.25;nan
72975;BME280;61166;54.228;37.632;2022-08-07T02:54:59;99526.16;;;22.69;nan
72975;BME280;61166;54.228;37.632;2022-08-07T02:57:27;99530.47;;;23.23;nan
72975;BME280;61166;54.228;37.632;2022-08-07T02:59:53;99538.56;;;23.65;nan
72975;BME280;61166;54.228;37.632;2022-08-07T03:02:20;99528.91;;;24.21;nan
72975;BME280;61166;54.228;37.632;2022-08-07T03:04:45;99537.63;;;24.64;nan
72975;BME280;61166;54.228;37.632;2022-08-07T03:07:12;99529.44;;;25.15;nan
72975;BME280;61166;54.228;37.632;2022-08-07T03:09:39;99538.91;;;25.67;nan
72975;BME280;61166;54.228;37.632;2022-08-07T03:12:05;99536.06;;;26.09;nan
72975;BME280;61166;54.228;37.632;2022-08-07T03:14:32;99532.91;;;26.29;nan
72975;BME280;61166;54.228;37.632;2022-08-07T03:17:00;99536.56;;;26.78;nan
72975;BME280;61166;54.228;37.632;2022-08-07T03:19:26;99534.06;;;27.21;nan
72975;BME280;61166;54.228;37.632;2022-08-07T03:21:53;99528.97;;;27.59;nan
72975;BME280;61166;54.228;37.632;2022-08-07T03:24:20;99528.66;;;27.78;nan
72975;BME280;61166;54.228;37.632;2022-08-07T03:26:46;99535.97;;;28.20;nan
72975;BME280;61166;54.228;37.632;2022-08-07T03:29:15;99533.25;;;28.38;nan
72975;BME280;61166;54.228;37.632;2022-08-07T03:31:42;99531.97;;;28.61;nan
72975;BME280;61166;54.228;37.632;2022-08-07T03:34:11;99533.28;;;28.93;nan
72975;BME280;61166;54.228;37.632;2022-08-07T03:36:39;99530.88;;;29.38;nan
72975;BME280;61166;54.228;37.632;2022-08-07T03:39:07;99535.81;;;29.86;nan
72975;BME280;61166;54.228;37.632;2022-08-07T03:41:34;99534.47;;;30.34;nan
72975;BME280;61166;54.228;37.632;2022-08-07T03:44:00;99544.00;;;30.85;nan
72975;BME280;61166;54.228;37.632;2022-08-07T03:46:27;99532.84;;;30.99;nan
72975;BME280;61166;54.228;37.632;2022-08-07T03:48:53;99536.34;;;31.24;nan
72975;BME280;61166;54.228;37.632;2022-08-07T03:51:20;99525.34;;;31.57;nan
72975;BME280;61166;54.228;37.632;2022-08-07T03:53:46;99528.97;;;31.73;nan
72975;BME280;61166;54.228;37.632;2022-08-07T03:56:15;99536.31;;;32.13;nan
72975;BME280;61166;54.228;37.632;2022-08-07T03:58:42;99534.56;;;32.48;nan
72975;BME280;61166;54.228;37.632;2022-08-07T04:01:09;99531.47;;;32.94;nan
72975;BME280;61166;54.228;37.632;2022-08-07T04:03:34;99533.59;;;33.51;nan
72975;BME280;61166;54.228;37.632;2022-08-07T04:06:00;99529.72;;;34.26;nan
72975;BME280;61166;54.228;37.632;2022-08-07T04:08:26;99533.59;;;34.25;nan
72975;BME280;61166;54.228;37.632;2022-08-07T04:10:52;99533.66;;;34.70;nan
72975;BME280;61166;54.228;37.632;2022-08-07T04:13:18;99539.03;;;35.09;nan
72975;BME280;61166;54.228;37.632;2022-08-07T04:15:46;99534.25;;;35.55;nan
72975;BME280;61166;54.228;37.632;2022-08-07T04:18:13;99528.00;;;35.85;nan
72975;BME280;61166;54.228;37.632;2022-08-07T04:20:38;99529.38;;;36.31;nan
72975;BME280;61166;54.228;37.632;2022-08-07T04:23:04;99528.78;;;36.52;nan
72975;BME280;61166;54.228;37.632;2022-08-07T04:25:30;99529.22;;;36.95;nan
72975;BME280;61166;54.228;37.632;2022-08-07T04:27:56;99530.63;;;37.29;nan
72975;BME280;61166;54.228;37.632;2022-08-07T04:30:21;99522.72;;;37.83;nan
72975;BME280;61166;54.228;37.632;2022-08-07T04:32:48;99526.41;;;38.37;nan
72975;BME280;61166;54.228;37.632;2022-08-07T04:35:13;99521.75;;;38.55;nan
72975;BME280;61166;54.228;37.632;2022-08-07T04:37:39;99532.78;;;38.69;nan
72975;BME280;61166;54.228;37.632;2022-08-07T04:40:05;99523.28;;;39.34;nan
72975;BME280;61166;54.228;37.632;2022-08-07T04:42:31;99517.78;;;39.48;nan
72975;BME280;61166;54.228;37.632;2022-08-07T04:45:00;99527.75;;;40.15;nan
72975;BME280;61166;54.228;37.632;2022-08-07T04:52:57;99518.03;;;40.59;nan
72975;BME280;61166;54.228;37.632;2022-08-07T05:03:22;99525.06;;;41.53;nan
72975;BME280;61166;54.228;37.632;2022-08-07T05:05:57;99521.91;;;41.54;nan
72975;BME280;61166;54.228;37.632;2022-08-07T05:08:47;99526.88;;;41.67;nan
72975;BME280;61166;54.228;37.632;2022-08-07T05:11:32;99523.22;;;41.77;nan
72975;BME280;61166;54.228;37.632;2022-08-07T05:16:44;99525.97;;;42.65;nan
72975;BME280;61166;54.228;37.632;2022-08-07T05:19:14;99524.72;;;42.93;nan
72975;BME280;61166;54.228;37.632;2022-08-07T05:21:49;99521.53;;;42.94;nan
72975;BME280;61166;54.228;37.632;2022-08-07T05:24:16;99521.34;;;43.28;nan
72975;BME280;61166;54.228;37.632;2022-08-07T05:26:45;99522.81;;;43.33;nan
72975;BME280;61166;54.228;37.632;2022-08-07T05:29:14;99516.38;;;43.16;nan
72975;BME280;61166;54.228;37.632;2022-08-07T05:31:41;99523.63;;;43.10;nan
72975;BME280;61166;54.228;37.632;2022-08-07T05:34:09;99525.09;;;43.58;nan
72975;BME280;61166;54.228;37.632;2022-08-07T05:36:37;99521.97;;;43.75;nan
72975;BME280;61166;54.228;37.632;2022-08-07T05:39:05;99521.19;;;43.55;nan
72975;BME280;61166;54.228;37.632;2022-08-07T05:41:31;99514.31;;;43.63;nan
72975;BME280;61166;54.228;37.632;2022-08-07T05:43:57;99523.34;;;44.39;nan
72975;BME280;61166;54.228;37.632;2022-08-07T05:46:23;99517.75;;;44.07;nan
72975;BME280;61166;54.228;37.632;2022-08-07T05:48:50;99524.00;;;44.47;nan
72975;BME280;61166;54.228;37.632;2022-08-07T05:51:16;99533.69;;;44.71;nan
72975;BME280;61166;54.228;37.632;2022-08-07T05:53:42;99523.59;;;44.29;nan
72975;BME280;61166;54.228;37.632;2022-08-07T05:56:08;99521.09;;;44.34;nan
72975;BME280;61166;54.228;37.632;2022-08-07T05:58:35;99528.81;;;44.75;nan
72975;BME280;61166;54.228;37.632;2022-08-07T06:01:01;99516.47;;;45.09;nan
72975;BME280;61166;54.228;37.632;2022-08-07T06:03:28;99519.97;;;44.64;nan
72975;BME280;61166;54.228;37.632;2022-08-07T06:05:55;99520.91;;;44.25;nan
72975;BME280;61166;54.228;37.632;2022-08-07T06:08:22;99525.19;;;44.62;nan
72975;BME280;61166;54.228;37.632;2022-08-07T06:10:48;99518.31;;;44.34;nan
72975;BME280;61166;54.228;37.632;2022-08-07T06:13:14;99522.81;;;43.53;nan
72975;BME280;61166;54.228;37.632;2022-08-07T06:15:41;99527.25;;;43.70;nan
72975;BME280;61166;54.228;37.632;2022-08-07T06:18:07;99514.06;;;42.68;nan
72975;BME280;61166;54.228;37.632;2022-08-07T06:20:36;99511.00;;;42.86;nan
72975;BME280;61166;54.228;37.632;2022-08-07T06:23:03;99517.13;;;43.60;nan
72975;BME280;61166;54.228;37.632;2022-08-07T06:25:29;99521.84;;;43.83;nan
72975;BME280;61166;54.228;37.632;2022-08-07T06:28:02;99514.34;;;43.20;nan
72975;BME280;61166;54.228;37.632;2022-08-07T06:30:27;99517.78;;;43.28;nan
72975;BME280;61166;54.228;37.632;2022-08-07T06:32:53;99512.41;;;43.17;nan
72975;BME280;61166;54.228;37.632;2022-08-07T06:35:18;99513.16;;;43.41;nan
72975;BME280;61166;54.228;37.632;2022-08-07T06:37:43;99512.53;;;43.73;nan
72975;BME280;61166;54.228;37.632;2022-08-07T06:40:09;99516.31;;;43.63;nan
72975;BME280;61166;54.228;37.632;2022-08-07T06:42:35;99517.09;;;43.63;nan
72975;BME280;61166;54.228;37.632;2022-08-07T06:45:03;99521.38;;;43.44;nan
72975;BME280;61166;54.228;37.632;2022-08-07T06:47:31;99508.22;;;43.32;nan
72975;BME280;61166;54.228;37.632;2022-08-07T06:49:57;99507.38;;;44.11;nan
72975;BME280;61166;54.228;37.632;2022-08-07T06:52:24;99509.63;;;43.96;nan
72975;BME280;61166;54.228;37.632;2022-08-07T06:54:52;99512.19;;;43.31;nan
72975;BME280;61166;54.228;37.632;2022-08-07T06:57:19;99513.75;;;43.32;nan
72975;BME280;61166;54.228;37.632;2022-08-07T06:59:46;99514.47;;;41.82;nan
72975;BME280;61166;54.228;37.632;2022-08-07T07:02:17;99510.25;;;42.04;nan
72975;BME280;61166;54.228;37.632;2022-08-07T07:04:44;99515.69;;;42.65;nan
72975;BME280;61166;54.228;37.632;2022-08-07T07:07:09;99505.75;;;42.91;nan
72975;BME280;61166;54.228;37.632;2022-08-07T07:09:35;99508.75;;;43.00;nan
72975;BME280;61166;54.228;37.632;2022-08-07T07:14:52;99511.47;;;41.35;nan
72975;BME280;61166;54.228;37.632;2022-08-07T07:20:11;99512.84;;;40.06;nan
72975;BME280;61166;54.228;37.632;2022-08-07T07:22:40;99509.59;;;40.21;nan
72975;BME280;61166;54.228;37.632;2022-08-07T07:25:08;99514.69;;;40.26;nan
72975;BME280;61166;54.228;37.632;2022-08-07T07:27:40;99512.06;;;40.02;nan
72975;BME280;61166;54.228;37.632;2022-08-07T07:30:07;99508.09;;;40.10;nan
72975;BME280;61166;54.228;37.632;2022-08-07T07:32:35;99498.16;;;40.85;nan
72975;BME280;61166;54.228;37.632;2022-08-07T07:35:07;99503.94;;;40.46;nan
72975;BME280;61166;54.228;37.632;2022-08-07T07:37:35;99491.22;;;40.63;nan
72975;BME280;61166;54.228;37.632;2022-08-07T07:40:04;99501.22;;;40.43;nan
72975;BME280;61166;54.228;37.632;2022-08-07T07:42:31;99497.91;;;40.62;nan
72975;BME280;61166;54.228;37.632;2022-08-07T07:45:03;99503.97;;;40.95;nan
72975;BME280;61166;54.228;37.632;2022-08-07T07:47:30;99496.47;;;41.36;nan
72975;BME280;61166;54.228;37.632;2022-08-07T07:49:58;99501.50;;;40.55;nan
72975;BME280;61166;54.228;37.632;2022-08-07T07:52:25;99494.56;;;40.37;nan
72975;BME280;61166;54.228;37.632;2022-08-07T07:54:51;99502.03;;;39.59;nan
72975;BME280;61166;54.228;37.632;2022-08-07T07:57:21;99489.44;;;39.58;nan
72975;BME280;61166;54.228;37.632;2022-08-07T07:59:48;99493.22;;;39.93;nan
72975;BME280;61166;54.228;37.632;2022-08-07T08:02:17;99497.66;;;39.69;nan
72975;BME280;61166;54.228;37.632;2022-08-07T08:04:43;99492.63;;;39.46;nan
72975;BME280;61166;54.228;37.632;2022-08-07T08:07:10;99497.72;;;40.39;nan
72975;BME280;61166;54.228;37.632;2022-08-07T08:09:36;99492.06;;;40.53;nan
72975;BME280;61166;54.228;37.632;2022-08-07T08:12:03;99486.56;;;40.53;nan
72975;BME280;61166;54.228;37.632;2022-08-07T08:14:33;99485.53;;;40.84;nan
72975;BME280;61166;54.228;37.632;2022-08-07T08:17:00;99490.25;;;39.52;nan
72975;BME280;61166;54.228;37.632;2022-08-07T08:19:28;99487.59;;;40.14;nan
72975;BME280;61166;54.228;37.632;2022-08-07T08:21:57;99496.72;;;40.04;nan
72975;BME280;61166;54.228;37.632;2022-08-07T08:24:44;99497.28;;;39.64;nan
72975;BME280;61166;54.228;37.632;2022-08-07T08:27:32;99478.50;;;40.24;nan
72975;BME280;61166;54.228;37.632;2022-08-07T08:30:05;99476.00;;;40.93;nan
72975;BME280;61166;54.228;37.632;2022-08-07T08:32:34;99477.16;;;41.97;nan
72975;BME280;61166;54.228;37.632;2022-08-07T08:35:00;99474.19;;;42.65;nan
72975;BME280;61166;54.228;37.632;2022-08-07T08:37:29;99471.91;;;41.08;nan
72975;BME280;61166;54.228;37.632;2022-08-07T08:39:55;99480.16;;;40.08;nan
72975;BME280;61166;54.228;37.632;2022-08-07T08:42:37;99477.56;;;40.94;nan
72975;BME280;61166;54.228;37.632;2022-08-07T08:45:19;99477.38;;;40.15;nan
72975;BME280;61166;54.228;37.632;2022-08-07T08:48:07;99479.72;;;40.16;nan
72975;BME280;61166;54.228;37.632;2022-08-07T08:50:47;99467.53;;;38.41;nan
72975;BME280;61166;54.228;37.632;2022-08-07T08:53:46;99474.63;;;38.74;nan
72975;BME280;61166;54.228;37.632;2022-08-07T08:56:25;99460.88;;;37.27;nan
72975;BME280;61166;54.228;37.632;2022-08-07T09:01:35;99462.81;;;38.35;nan
72975;BME280;61166;54.228;37.632;2022-08-07T09:04:35;99458.13;;;40.63;nan
72975;BME280;61166;54.228;37.632;2022-08-07T09:07:15;99461.75;;;42.27;nan
72975;BME280;61166;54.228;37.632;2022-08-07T09:10:03;99459.78;;;40.53;nan
72975;BME280;61166;54.228;37.632;2022-08-07T09:15:12;99456.41;;;37.77;nan
72975;BME280;61166;54.228;37.632;2022-08-07T09:23:21;99459.91;;;35.20;nan
72975;BME280;61166;54.228;37.632;2022-08-07T09:26:43;99458.94;;;35.95;nan
72975;BME280;61166;54.228;37.632;2022-08-07T09:29:25;99449.00;;;37.92;nan
72975;BME280;61166;54.228;37.632;2022-08-07T09:32:16;99457.06;;;35.13;nan
72975;BME280;61166;54.228;37.632;2022-08-07T09:35:06;99450.47;;;36.99;nan
72975;BME280;61166;54.228;37.632;2022-08-07T09:40:29;99442.50;;;35.95;nan
72975;BME280;61166;54.228;37.632;2022-08-07T09:48:39;99433.28;;;37.06;nan
72975;BME280;61166;54.228;37.632;2022-08-07T09:54:16;99439.59;;;37.10;nan
72975;BME280;61166;54.228;37.632;2022-08-07T10:00:12;99433.59;;;34.59;nan
72975;BME280;61166;54.228;37.632;2022-08-07T10:02:51;99425.84;;;34.87;nan
72975;BME280;61166;54.228;37.632;2022-08-07T10:14:11;99414.19;;;32.87;nan
72975;BME280;61166;54.228;37.632;2022-08-07T10:17:06;99415.16;;;32.31;nan
72975;BME280;61166;54.228;37.632;2022-08-07T10:19:56;99405.38;;;31.87;nan
72975;BME280;61166;54.228;37.632;2022-08-07T10:22:42;99397.50;;;31.97;nan
72975;BME280;61166;54.228;37.632;2022-08-07T10:26:00;99410.13;;;31.90;nan
72975;BME280;61166;54.228;37.632;2022-08-07T10:39:11;99396.81;;;30.68;nan
72975;BME280;61166;54.228;37.632;2022-08-07T10:41:56;99393.53;;;30.62;nan
72975;BME280;61166;54.228;37.632;2022-08-07T10:44:46;99387.31;;;30.62;nan
72975;BME280;61166;54.228;37.632;2022-08-07T10:50:22;99385.50;;;30.78;nan
72975;BME280;61166;54.228;37.632;2022-08-07T11:01:05;99368.06;;;30.54;nan
72975;BME280;61166;54.228;37.632;2022-08-07T11:03:47;99380.28;;;30.85;nan
72975;BME280;61166;54.228;37.632;2022-08-07T11:08:59;99371.78;;;30.86;nan
72975;BME280;61166;54.228;37.632;2022-08-07T11:11:31;99361.25;;;30.97;nan
72975;BME280;61166;54.228;37.632;2022-08-07T11:14:09;99359.78;;;30.87;nan
72975;BME280;61166;54.228;37.632;2022-08-07T11:17:05;99359.13;;;30.78;nan
72975;BME280;61166;54.228;37.632;2022-08-07T11:19:40;99351.88;;;30.70;nan
72975;BME280;61166;54.228;37.632;2022-08-07T11:22:33;99352.69;;;30.71;nan
72975;BME280;61166;54.228;37.632;2022-08-07T11:25:10;99359.03;;;30.63;nan
72975;BME280;61166;54.228;37.632;2022-08-07T11:30:23;99345.69;;;30.58;nan
72975;BME280;61166;54.228;37.632;2022-08-07T11:33:00;99345.00;;;30.48;nan
72975;BME280;61166;54.228;37.632;2022-08-07T11:35:33;99344.88;;;30.45;nan
72975;BME280;61166;54.228;37.632;2022-08-07T11:38:09;99339.44;;;30.45;nan
72975;BME280;61166;54.228;37.632;2022-08-07T11:43:21;99342.06;;;30.53;nan
72975;BME280;61166;54.228;37.632;2022-08-07T11:45:54;99348.41;;;30.58;nan
72975;BME280;61166;54.228;37.632;2022-08-07T11:54:01;99342.72;;;30.50;nan
72975;BME280;61166;54.228;37.632;2022-08-07T11:59:47;99345.56;;;30.42;nan
72975;BME280;61166;54.228;37.632;2022-08-07T12:10:48;99343.84;;;30.37;nan
72975;BME280;61166;54.228;37.632;2022-08-07T12:13:31;99344.28;;;30.27;nan
72975;BME280;61166;54.228;37.632;2022-08-07T12:16:07;99345.22;;;30.31;nan
72975;BME280;61166;54.228;37.632;2022-08-07T12:21:58;99343.19;;;30.40;nan
72975;BME280;61166;54.228;37.632;2022-08-07T12:27:36;99333.00;;;30.37;nan
72975;BME280;61166;54.228;37.632;2022-08-07T12:30:05;99340.47;;;30.40;nan
72975;BME280;61166;54.228;37.632;2022-08-07T12:32:51;99334.13;;;30.36;nan
72975;BME280;61166;54.228;37.632;2022-08-07T12:35:20;99333.69;;;30.71;nan
72975;BME280;61166;54.228;37.632;2022-08-07T12:37:49;99333.53;;;30.92;nan
72975;BME280;61166;54.228;37.632;2022-08-07T12:40:20;99326.28;;;30.96;nan
72975;BME280;61166;54.228;37.632;2022-08-07T12:42:46;99329.59;;;30.77;nan
72975;BME280;61166;54.228;37.632;2022-08-07T12:45:21;99318.38;;;30.91;nan
72975;BME280;61166;54.228;37.632;2022-08-07T12:48:21;99320.50;;;30.97;nan
72975;BME280;61166;54.228;37.632;2022-08-07T12:50:56;99318.28;;;30.87;nan
72975;BME280;61166;54.228;37.632;2022-08-07T12:53:31;99318.53;;;30.70;nan
72975;BME280;61166;54.228;37.632;2022-08-07T12:58:25;99319.41;;;30.86;nan
72975;BME280;61166;54.228;37.632;2022-08-07T13:03:59;99312.38;;;30.85;nan
72975;BME280;61166;54.228;37.632;2022-08-07T13:15:25;99315.38;;;30.43;nan
72975;BME280;61166;54.228;37.632;2022-08-07T13:21:26;99309.25;;;30.46;nan
72975;BME280;61166;54.228;37.632;2022-08-07T13:24:02;99299.56;;;30.58;nan
72975;BME280;61166;54.228;37.632;2022-08-07T13:26:55;99298.88;;;30.61;nan
72975;BME280;61166;54.228;37.632;2022-08-07T13:29:25;99301.31;;;30.66;nan
72975;BME280;61166;54.228;37.632;2022-08-07T13:32:02;99304.72;;;30.63;nan
72975;BME280;61166;54.228;37.632;2022-08-07T13:37:09;99293.44;;;30.61;nan
72975;BME280;61166;54.228;37.632;2022-08-07T13:39:42;99293.44;;;30.48;nan
72975;BME280;61166;54.228;37.632;2022-08-07T13:42:10;99287.31;;;30.39;nan
72975;BME280;61166;54.228;37.632;2022-08-07T13:44:39;99284.38;;;30.32;nan
72975;BME280;61166;54.228;37.632;2022-08-07T13:47:08;99295.91;;;30.17;nan
72975;BME280;61166;54.228;37.632;2022-08-07T13:49:41;99290.16;;;30.18;nan
72975;BME280;61166;54.228;37.632;2022-08-07T13:52:08;99292.97;;;30.22;nan
72975;BME280;61166;54.228;37.632;2022-08-07T13:54:36;99294.56;;;30.23;nan
72975;BME280;61166;54.228;37.632;2022-08-07T13:57:06;99279.84;;;30.24;nan
72975;BME280;61166;54.228;37.632;2022-08-07T13:59:38;99287.78;;;30.29;nan
72975;BME280;61166;54.228;37.632;2022-08-07T14:02:09;99289.59;;;30.37;nan
72975;BME280;61166;54.228;37.632;2022-08-07T14:04:47;99287.31;;;30.39;nan
72975;BME280;61166;54.228;37.632;2022-08-07T14:07:14;99291.28;;;30.42;nan
72975;BME280;61166;54.228;37.632;2022-08-07T14:09:42;99293.53;;;30.40;nan
72975;BME280;61166;54.228;37.632;2022-08-07T14:12:18;99289.13;;;30.35;nan
72975;BME280;61166;54.228;37.632;2022-08-07T14:15:04;99292.75;;;30.39;nan
72975;BME280;61166;54.228;37.632;2022-08-07T14:17:34;99289.69;;;30.41;nan
72975;BME280;61166;54.228;37.632;2022-08-07T14:20:08;99291.50;;;30.37;nan
72975;BME280;61166;54.228;37.632;2022-08-07T14:22:37;99292.63;;;30.36;nan
72975;BME280;61166;54.228;37.632;2022-08-07T14:25:11;99291.38;;;30.21;nan
72975;BME280;61166;54.228;37.632;2022-08-07T14:27:44;99288.09;;;30.15;nan
72975;BME280;61166;54.228;37.632;2022-08-07T14:30:11;99294.09;;;30.09;nan
72975;BME280;61166;54.228;37.632;2022-08-07T14:32:57;99288.31;;;29.98;nan
72975;BME280;61166;54.228;37.632;2022-08-07T14:35:29;99286.50;;;29.90;nan
72975;BME280;61166;54.228;37.632;2022-08-07T14:37:56;99287.72;;;29.80;nan
72975;BME280;61166;54.228;37.632;2022-08-07T14:40:24;99288.50;;;29.81;nan
72975;BME280;61166;54.228;37.632;2022-08-07T14:45:22;99294.34;;;29.71;nan
72975;BME280;61166;54.228;37.632;2022-08-07T14:47:50;99302.03;;;29.69;nan
72975;BME280;61166;54.228;37.632;2022-08-07T14:50:17;99296.28;;;29.70;nan
72975;BME280;61166;54.228;37.632;2022-08-07T14:52:45;99298.28;;;29.61;nan
72975;BME280;61166;54.228;37.632;2022-08-07T14:55:13;99300.41;;;29.55;nan
72975;BME280;61166;54.228;37.632;2022-08-07T14:57:39;99292.59;;;29.42;nan
72975;BME280;61166;54.228;37.632;2022-08-07T15:00:05;99301.81;;;29.41;nan
72975;BME280;61166;54.228;37.632;2022-08-07T15:02:33;99299.84;;;29.29;nan
72975;BME280;61166;54.228;37.632;2022-08-07T15:07:27;99302.50;;;29.17;nan
72975;BME280;61166;54.228;37.632;2022-08-07T15:09:55;99294.66;;;29.03;nan
72975;BME280;61166;54.228;37.632;2022-08-07T15:12:24;99298.22;;;28.95;nan
72975;BME280;61166;54.228;37.632;2022-08-07T15:15:14;99293.69;;;28.87;nan
72975;BME280;61166;54.228;37.632;2022-08-07T15:17:43;99290.88;;;28.75;nan
72975;BME280;61166;54.228;37.632;2022-08-07T15:20:11;99291.56;;;28.63;nan
72975;BME280;61166;54.228;37.632;2022-08-07T15:22:49;99296.09;;;28.50;nan
72975;BME280;61166;54.228;37.632;2022-08-07T15:30:12;99293.00;;;28.31;nan
72975;BME280;61166;54.228;37.632;2022-08-07T15:32:44;99285.25;;;28.21;nan
72975;BME280;61166;54.228;37.632;2022-08-07T15:35:20;99287.53;;;28.10;nan
72975;BME280;61166;54.228;37.632;2022-08-07T15:37:58;99290.63;;;27.91;nan
72975;BME280;61166;54.228;37.632;2022-08-07T15:40:26;99290.78;;;27.86;nan
72975;BME280;61166;54.228;37.632;2022-08-07T15:47:50;99294.69;;;27.68;nan
72975;BME280;61166;54.228;37.632;2022-08-07T15:50:19;99297.69;;;27.58;nan
72975;BME280;61166;54.228;37.632;2022-08-07T15:52:45;99296.75;;;27.54;nan